Time;durP1;ratioP1;P1;durP2;ratioP2;P2;SDS_P1;SDS_P2;PMS_P1;PMS_P2;Temp;Humidity;BMP_temperature;BMP_pressure;BME280_temperature;BME280_humidity;BME280_pressure;Samples;Min_cycle;Max_cycle;Signal;HPM_P1;HPM_P2
2023/05/03 00:02:15;;;;;;;6.97;1.10;;;;;;;17.07;35.12;99394.66;4998577;28;20045;-86
2023/05/03 00:04:40;;;;;;;3.25;0.98;;;;;;;17.05;35.39;99399.28;5015855;28;20185;-86
2023/05/03 00:07:07;;;;;;;3.55;1.35;;;;;;;17.05;35.19;99407.19;4998775;28;20037;-86
2023/05/03 00:09:34;;;;;;;3.72;1.02;;;;;;;17.00;35.19;99402.34;4998711;28;20473;-86
2023/05/03 00:12:00;;;;;;;2.72;1.30;;;;;;;17.03;35.05;99409.97;4998376;28;20598;-85
2023/05/03 00:14:26;;;;;;;3.45;1.10;;;;;;;17.01;35.17;99406.59;5016144;28;20088;-84
2023/05/03 00:16:51;;;;;;;2.42;1.00;;;;;;;17.00;35.13;99405.78;4998453;28;20034;-90
2023/05/03 00:19:18;;;;;;;2.47;1.10;;;;;;;16.98;35.27;99402.47;4998937;28;20037;-92
2023/05/03 00:21:44;;;;;;;3.28;0.90;;;;;;;16.99;35.36;99398.84;4998929;28;20046;-91
2023/05/03 00:24:10;;;;;;;2.90;1.17;;;;;;;16.99;35.22;99403.28;4998906;28;20038;-91
2023/05/03 00:26:35;;;;;;;4.40;1.20;;;;;;;16.93;35.13;99394.13;4998419;28;20106;-91
2023/05/03 00:29:01;;;;;;;2.35;1.15;;;;;;;16.92;35.29;99384.56;5016046;28;20042;-90
2023/05/03 00:31:26;;;;;;;2.33;1.00;;;;;;;16.92;35.48;99392.50;5016059;28;20037;-90
2023/05/03 00:33:52;;;;;;;2.92;1.08;;;;;;;16.92;35.53;99395.13;5015868;28;20041;-90
2023/05/03 00:36:17;;;;;;;1.98;1.10;;;;;;;16.89;35.63;99390.13;4981854;28;20045;-89
2023/05/03 00:38:43;;;;;;;2.05;0.80;;;;;;;16.87;35.59;99391.22;4981525;28;20100;-90
2023/05/03 00:41:09;;;;;;;1.85;0.80;;;;;;;16.82;35.41;99384.56;5015622;28;20428;-89
2023/05/03 00:43:34;;;;;;;4.80;1.10;;;;;;;16.86;35.73;99384.28;4981672;28;20132;-93
2023/05/03 00:46:02;;;;;;;2.47;1.10;;;;;;;16.83;35.64;99382.75;4998422;28;20070;-91
2023/05/03 00:48:28;;;;;;;3.05;1.30;;;;;;;16.80;35.88;99381.22;5014699;28;20041;-91
2023/05/03 00:50:54;;;;;;;2.42;1.10;;;;;;;16.78;35.95;99377.91;5014309;28;20385;-91
2023/05/03 00:53:20;;;;;;;2.63;0.90;;;;;;;16.77;36.26;99376.22;4998301;28;20033;-88
2023/05/03 00:55:46;;;;;;;2.22;1.10;;;;;;;16.80;36.11;99383.03;5014189;28;20080;-91
2023/05/03 00:58:11;;;;;;;2.92;1.10;;;;;;;16.75;36.31;99380.81;4997984;28;20073;-90
2023/05/03 01:00:40;;;;;;;2.03;1.20;;;;;;;16.75;36.30;99385.28;4998345;28;20378;-90
2023/05/03 01:03:05;;;;;;;2.60;1.08;;;;;;;16.75;36.25;99394.00;4997430;28;20097;-90
2023/05/03 01:05:33;;;;;;;2.08;1.00;;;;;;;16.77;36.42;99397.31;5015008;28;20498;-89
2023/05/03 01:08:15;;;;;;;2.15;1.00;;;;;;;16.76;36.33;99395.69;4982045;28;20180;-90
2023/05/03 01:10:59;;;;;;;2.72;1.10;;;;;;;16.76;36.47;99395.69;4999623;28;20137;-88
2023/05/03 01:13:37;;;;;;;2.80;1.20;;;;;;;16.71;36.45;99387.34;5015247;28;20045;-88
2023/05/03 01:16:25;;;;;;;3.25;1.20;;;;;;;16.75;36.71;99395.81;4997162;28;20042;-89
2023/05/03 01:18:51;;;;;;;1.80;1.00;;;;;;;16.76;36.59;99395.69;4997373;28;20034;-88
2023/05/03 01:21:17;;;;;;;2.05;1.00;;;;;;;16.68;36.61;99386.78;4997268;28;20045;-88
2023/05/03 01:23:56;;;;;;;2.67;1.40;;;;;;;16.73;36.95;99393.31;5014791;28;20073;-88
2023/05/03 01:26:23;;;;;;;3.40;0.98;;;;;;;16.74;36.45;99397.59;5030276;28;20038;-88
2023/05/03 01:28:49;;;;;;;3.88;1.10;;;;;;;16.72;36.68;99401.38;5013503;28;20034;-89
2023/05/03 01:31:18;;;;;;;2.08;1.10;;;;;;;16.69;36.75;99388.47;4980734;28;20525;-87
2023/05/03 01:33:48;;;;;;;3.70;1.20;;;;;;;16.70;36.68;99406.78;5013470;28;20034;-88
2023/05/03 01:36:22;;;;;;;3.22;0.95;;;;;;;16.73;36.92;99405.66;4981334;28;20078;-87
2023/05/03 01:38:47;;;;;;;2.97;1.10;;;;;;;16.72;36.87;99407.47;5029550;28;20034;-88
2023/05/03 01:41:13;;;;;;;2.72;1.20;;;;;;;16.72;36.90;99404.00;4996735;28;20037;-88
2023/05/03 01:43:39;;;;;;;2.65;1.00;;;;;;;16.72;37.09;99406.63;4996506;28;20042;-88
2023/05/03 01:46:05;;;;;;;3.05;1.08;;;;;;;16.72;37.07;99396.09;5012414;28;20046;-88
2023/05/03 01:48:30;;;;;;;4.50;1.20;;;;;;;16.70;37.15;99393.59;5014255;28;20041;-88
2023/05/03 01:50:56;;;;;;;2.95;1.10;;;;;;;16.71;37.15;99387.34;4996489;28;20038;-89
2023/05/03 01:53:21;;;;;;;2.90;1.52;;;;;;;16.71;37.17;99378.59;5014083;28;20034;-87
2023/05/03 01:55:47;;;;;;;2.33;0.85;;;;;;;16.71;37.09;99368.88;4995732;28;20548;-88
2023/05/03 01:58:12;;;;;;;3.35;1.30;;;;;;;16.70;36.83;99369.03;4996313;28;20085;-88
2023/05/03 02:00:38;;;;;;;2.28;1.15;;;;;;;16.69;37.22;99359.47;4996734;28;20468;-89
2023/05/03 02:03:03;;;;;;;2.63;1.00;;;;;;;16.68;37.25;99363.06;5014044;28;20050;-89
2023/05/03 02:05:29;;;;;;;2.67;1.10;;;;;;;16.66;37.34;99363.22;4996030;28;20056;-88
2023/05/03 02:07:55;;;;;;;1.75;1.00;;;;;;;16.65;37.17;99372.06;5015571;28;20065;-88
2023/05/03 02:10:20;;;;;;;2.15;1.10;;;;;;;16.63;37.09;99366.97;4980245;28;20034;-90
2023/05/03 02:12:46;;;;;;;3.08;1.20;;;;;;;16.62;37.01;99367.94;5013675;28;20034;-89
2023/05/03 02:15:11;;;;;;;2.13;1.08;;;;;;;16.63;37.53;99368.75;4979055;28;20201;-88
2023/05/03 02:17:37;;;;;;;4.57;1.20;;;;;;;16.60;37.35;99361.97;4979996;28;20048;-88
2023/05/03 02:20:10;;;;;;;2.72;1.00;;;;;;;16.61;37.49;99360.16;5029291;28;20117;-89
2023/05/03 02:22:35;;;;;;;3.03;1.40;;;;;;;16.59;37.51;99359.47;4997128;28;20037;-89
2023/05/03 02:25:01;;;;;;;2.00;1.25;;;;;;;16.56;37.42;99357.94;4996024;28;20034;-89
2023/05/03 02:27:26;;;;;;;1.80;1.00;;;;;;;16.60;37.56;99359.34;5013232;28;20034;-88
2023/05/03 02:29:52;;;;;;;1.63;0.90;;;;;;;16.58;37.72;99366.53;5013521;28;20052;-88
2023/05/03 02:32:18;;;;;;;3.53;1.27;;;;;;;16.56;37.59;99362.41;5013516;28;20038;-88
2023/05/03 02:34:45;;;;;;;4.00;1.10;;;;;;;16.57;37.67;99372.81;4995914;28;20487;-86
2023/05/03 02:37:11;;;;;;;2.58;1.13;;;;;;;16.56;37.57;99372.94;5011620;28;20045;-87
2023/05/03 02:39:36;;;;;;;4.05;1.40;;;;;;;16.53;37.66;99373.22;5013020;28;20041;-86
2023/05/03 02:42:02;;;;;;;3.03;1.20;;;;;;;16.53;37.82;99376.69;4996021;28;20045;-88
2023/05/03 02:44:27;;;;;;;2.13;1.13;;;;;;;16.52;37.77;99379.44;4996087;28;20419;-88
2023/05/03 02:46:53;;;;;;;2.45;1.10;;;;;;;16.48;37.88;99368.38;4995970;28;20038;-89
2023/05/03 02:49:19;;;;;;;2.45;1.23;;;;;;;16.50;37.97;99370.88;5013161;28;20484;-88
2023/05/03 02:51:44;;;;;;;3.63;1.10;;;;;;;16.49;37.88;99377.09;4979312;28;20048;-87
2023/05/03 02:54:10;;;;;;;3.95;1.10;;;;;;;16.50;38.09;99384.03;5013234;28;20477;-85
2023/05/03 02:56:35;;;;;;;3.67;1.30;;;;;;;16.49;38.08;99382.38;4995281;28;20121;-87
2023/05/03 02:59:01;;;;;;;1.58;0.80;;;;;;;16.41;38.13;99373.38;4996205;28;20377;-87
2023/05/03 03:01:27;;;;;;;14.18;1.40;;;;;;;16.49;38.16;99382.38;4995672;28;20040;-89
2023/05/03 03:03:53;;;;;;;3.05;1.02;;;;;;;16.49;38.11;99387.63;4995014;28;20182;-88
2023/05/03 03:06:18;;;;;;;3.40;1.17;;;;;;;16.49;38.15;99385.00;5013728;28;20037;-88
2023/05/03 03:08:44;;;;;;;4.25;1.25;;;;;;;16.49;38.29;99382.38;4997005;28;20065;-88
2023/05/03 03:11:09;;;;;;;2.35;1.10;;;;;;;16.49;38.36;99387.63;4995189;28;20045;-89
2023/05/03 03:13:38;;;;;;;3.58;1.23;;;;;;;16.49;38.47;99383.19;4978763;28;20042;-88
2023/05/03 03:16:05;;;;;;;2.03;1.17;;;;;;;16.48;38.70;99378.91;4995730;28;20045;-88
2023/05/03 03:18:31;;;;;;;2.95;1.05;;;;;;;16.48;38.48;99386.81;4963111;28;20033;-84
2023/05/03 03:20:56;;;;;;;2.05;1.05;;;;;;;16.44;38.53;99378.31;4994705;28;20056;-84
2023/05/03 03:23:22;;;;;;;2.55;1.05;;;;;;;16.49;38.52;99382.38;5012496;28;20049;-83
2023/05/03 03:25:47;;;;;;;3.50;0.95;;;;;;;16.51;38.61;99383.03;5011899;28;20046;-84
2023/05/03 03:28:13;;;;;;;4.05;1.20;;;;;;;16.53;38.50;99383.75;5012153;28;20045;-84
2023/05/03 03:30:38;;;;;;;2.35;1.30;;;;;;;16.53;38.56;99376.69;5013538;28;20112;-84
2023/05/03 03:33:05;;;;;;;2.95;1.45;;;;;;;16.56;38.71;99375.56;4995062;28;20038;-85
2023/05/03 03:35:30;;;;;;;2.97;1.10;;;;;;;16.56;38.67;99375.56;4978467;28;20071;-83
2023/05/03 03:37:56;;;;;;;2.65;1.10;;;;;;;16.56;38.66;99386.13;4978005;28;20489;-89
2023/05/03 03:40:21;;;;;;;2.80;1.20;;;;;;;16.56;38.51;99388.75;4996565;28;20033;-79
2023/05/03 03:42:47;;;;;;;6.63;1.30;;;;;;;16.63;42.61;99397.75;4998725;28;20429;-89
2023/05/03 03:45:12;;;;;;;4.72;1.45;;;;;;;16.64;43.13;99399.44;4995374;28;20041;-92
2023/05/03 03:47:38;;;;;;;4.53;1.20;;;;;;;16.66;42.80;99402.75;4994865;28;20049;-78
2023/05/03 03:50:03;;;;;;;1.95;1.00;;;;;;;16.66;42.35;99412.47;5011905;28;20413;-80
2023/05/03 03:52:29;;;;;;;2.47;1.30;;;;;;;16.60;42.02;99404.16;4994346;28;20033;-81
2023/05/03 03:54:55;;;;;;;5.95;1.10;;;;;;;16.65;41.83;99414.25;4973981;28;20119;-79
2023/05/03 03:57:20;;;;;;;2.58;1.00;;;;;;;16.65;41.82;99403.72;4994199;28;20038;-79
2023/05/03 03:59:46;;;;;;;4.53;1.15;;;;;;;16.67;41.86;99414.97;5011643;28;20038;-81
2023/05/03 04:02:12;;;;;;;1.92;1.20;;;;;;;16.68;41.79;99415.78;4994102;28;20046;-82
2023/05/03 04:04:37;;;;;;;4.18;1.33;;;;;;;16.70;41.66;99414.69;5011755;28;20046;-79
2023/05/03 04:07:03;;;;;;;3.42;1.10;;;;;;;16.70;41.69;99422.59;4994117;28;20041;-80
2023/05/03 04:09:28;;;;;;;10.95;1.88;;;;;;;16.79;51.97;99421.75;4977394;28;20124;-85
2023/05/03 04:11:54;;;;;;;8.57;2.22;;;;;;;16.97;52.08;99421.06;4994140;28;20045;-81
2023/05/03 04:14:19;;;;;;;5.47;1.50;;;;;;;17.08;50.78;99420.91;5004264;28;20112;-81
2023/05/03 04:16:45;;;;;;;7.88;1.60;;;;;;;17.15;53.47;99416.72;4961559;28;20044;-83
2023/05/03 04:19:10;;;;;;;5.80;1.55;;;;;;;17.22;50.88;99432.81;4978073;28;20512;-82
2023/05/03 04:21:36;;;;;;;12.13;1.63;;;;;;;17.17;49.96;99414.78;4978016;28;20074;-82
2023/05/03 04:24:05;;;;;;;7.80;1.55;;;;;;;17.10;48.94;99416.31;4977179;28;20412;-82
2023/05/03 04:26:31;;;;;;;8.80;1.85;;;;;;;17.09;48.17;99419.09;4994071;28;20129;-84
2023/05/03 04:28:57;;;;;;;6.68;1.33;;;;;;;17.04;47.40;99424.78;4994019;28;20092;-85
2023/05/03 04:31:23;;;;;;;2.80;1.40;;;;;;;17.00;46.72;99433.97;4961402;28;20034;-80
2023/05/03 04:33:48;;;;;;;4.18;1.48;;;;;;;16.98;46.23;99442.03;4977315;28;20093;-80
2023/05/03 04:36:17;;;;;;;5.63;2.28;;;;;;;16.95;45.82;99436.19;4960553;28;20049;-80
2023/05/03 04:38:43;;;;;;;3.15;1.02;;;;;;;16.93;45.29;99436.31;4995139;28;20172;-80
2023/05/03 04:41:08;;;;;;;2.67;1.40;;;;;;;16.94;44.77;99443.28;4980999;28;20493;-80
2023/05/03 04:43:34;;;;;;;1.95;1.10;;;;;;;16.95;44.66;99436.19;4980884;28;20120;-80
2023/05/03 04:46:02;;;;;;;4.60;1.30;;;;;;;16.92;44.26;99424.13;4997374;28;20057;-80
2023/05/03 04:48:27;;;;;;;2.25;1.05;;;;;;;16.95;43.81;99423.84;4964848;28;20042;-80
2023/05/03 04:50:53;;;;;;;3.47;1.20;;;;;;;16.97;43.66;99435.09;4997693;28;20544;-80
2023/05/03 04:53:18;;;;;;;5.10;1.30;;;;;;;16.99;43.46;99454.22;5014536;28;20409;-78
2023/05/03 04:55:44;;;;;;;5.15;1.50;;;;;;;17.04;43.16;99479.34;4997587;28;20042;-78
2023/05/03 04:58:09;;;;;;;2.85;1.73;;;;;;;17.06;42.86;99485.31;5014905;28;20050;-78
2023/05/03 05:00:35;;;;;;;7.80;1.30;;;;;;;17.09;42.53;99500.88;5014911;28;20061;-78
2023/05/03 05:03:00;;;;;;;2.55;1.30;;;;;;;17.13;42.32;99505.72;4981783;28;20046;-79
2023/05/03 05:05:26;;;;;;;10.52;1.48;;;;;;;17.18;42.17;99500.84;4981650;28;20058;-80
2023/05/03 05:07:51;;;;;;;7.20;1.20;;;;;;;17.24;41.78;99504.75;4981863;28;20489;-79
2023/05/03 05:10:17;;;;;;;8.90;1.40;;;;;;;17.35;41.24;99522.22;4981410;28;20045;-80
2023/05/03 05:12:43;;;;;;;8.10;1.48;;;;;;;17.42;40.92;99518.03;4980550;28;20117;-79
2023/05/03 05:15:09;;;;;;;8.85;1.40;;;;;;;17.47;40.49;99521.09;4981712;28;20042;-79
2023/05/03 05:17:35;;;;;;;7.88;1.58;;;;;;;17.57;40.06;99521.06;4981832;28;20034;-79
2023/05/03 05:20:00;;;;;;;11.07;1.60;;;;;;;17.63;40.09;99517.88;4982209;28;20421;-80
2023/05/03 05:22:26;;;;;;;7.07;1.80;;;;;;;17.67;39.94;99519.22;4981112;28;20416;-80
2023/05/03 05:24:51;;;;;;;10.57;1.55;;;;;;;17.70;39.64;99518.94;4980862;28;20115;-79
2023/05/03 05:27:17;;;;;;;14.68;2.03;;;;;;;17.71;39.45;99507.41;4965031;28;20048;-80
2023/05/03 05:29:42;;;;;;;10.60;1.85;;;;;;;17.71;39.46;99499.50;4965764;28;20046;-79
2023/05/03 05:32:08;;;;;;;8.63;2.22;;;;;;;17.75;39.32;99486.81;4964043;28;20092;-80
2023/05/03 05:34:33;;;;;;;14.45;2.60;;;;;;;17.77;39.36;99489.31;4985288;28;20045;-78
2023/05/03 05:36:59;;;;;;;7.47;1.60;;;;;;;17.75;39.33;99486.81;4981089;28;20046;-80
2023/05/03 05:39:25;;;;;;;16.77;2.05;;;;;;;17.71;39.54;99486.28;4981170;28;20132;-79
2023/05/03 05:41:50;;;;;;;11.27;1.60;;;;;;;17.73;39.54;99491.44;4981316;28;20485;-79
2023/05/03 05:44:16;;;;;;;12.98;2.00;;;;;;;17.72;39.66;99495.84;4981108;28;20049;-79
2023/05/03 05:46:41;;;;;;;8.80;1.80;;;;;;;17.71;39.44;99502.13;4981163;28;20085;-80
2023/05/03 05:49:07;;;;;;;9.98;1.60;;;;;;;17.72;39.47;99510.88;4981731;28;20467;-80
2023/05/03 05:51:32;;;;;;;8.50;1.75;;;;;;;17.69;39.55;99506.69;4997236;28;20620;-79
2023/05/03 05:53:58;;;;;;;8.27;1.55;;;;;;;17.75;39.55;99515.03;4964702;28;20052;-80
2023/05/03 05:56:23;;;;;;;5.97;1.55;;;;;;;17.71;39.44;99504.78;4996801;28;20598;-79
2023/05/03 05:58:49;;;;;;;3.97;1.48;;;;;;;17.73;39.53;99525.75;4981379;28;20119;-80
2023/05/03 06:01:15;;;;;;;9.93;1.70;;;;;;;17.76;39.69;99535.16;4980767;28;20406;-80
2023/05/03 06:03:41;;;;;;;6.38;1.55;;;;;;;17.76;39.92;99532.53;5000308;28;20508;-80
2023/05/03 06:06:06;;;;;;;9.30;1.70;;;;;;;17.74;40.10;99527.41;4996177;28;20073;-79
2023/05/03 06:08:32;;;;;;;7.30;2.60;;;;;;;17.73;40.56;99545.06;4964848;28;20046;-78
2023/05/03 06:10:58;;;;;;;2.90;1.35;;;;;;;17.73;40.91;99555.63;4980477;28;20188;-80
2023/05/03 06:13:23;;;;;;;9.57;1.63;;;;;;;17.72;40.97;99559.22;4996404;28;20386;-80
2023/05/03 06:15:49;;;;;;;4.65;1.50;;;;;;;17.68;41.53;99560.50;4979665;28;20034;-80
2023/05/03 06:18:14;;;;;;;5.30;1.83;;;;;;;17.75;41.68;99570.50;4980565;28;20445;-80
2023/05/03 06:20:40;;;;;;;4.13;1.75;;;;;;;17.73;41.95;99560.91;4964421;28;20030;-79
2023/05/03 06:23:06;;;;;;;4.72;1.90;;;;;;;17.79;42.24;99551.59;4980475;28;20069;-80
2023/05/03 06:25:32;;;;;;;6.70;1.80;;;;;;;17.81;42.30;99532.97;4981397;28;20045;-80
2023/05/03 06:27:57;;;;;;;6.95;2.03;;;;;;;17.83;42.56;99517.78;4981228;28;20049;-80
2023/05/03 06:30:24;;;;;;;6.03;1.98;;;;;;;17.84;42.53;99485.97;4979708;28;20038;-80
2023/05/03 06:32:50;;;;;;;6.53;2.30;;;;;;;17.86;42.72;99469.97;4996889;28;20100;-81
2023/05/03 06:35:18;;;;;;;3.38;1.88;;;;;;;17.93;43.06;99475.53;4964602;28;20046;-81
2023/05/03 06:37:43;;;;;;;6.63;2.00;;;;;;;18.06;42.82;99478.66;4982206;28;20116;-79
2023/05/03 06:40:10;;;;;;;5.00;1.90;;;;;;;18.29;42.66;99480.91;4980240;28;20026;-80
2023/05/03 06:42:36;;;;;;;10.10;2.33;;;;;;;18.79;41.87;99478.59;4980824;28;20041;-82
2023/05/03 06:45:02;;;;;;;4.95;2.00;;;;;;;19.40;41.13;99472.59;4982243;28;20049;-81
2023/05/03 06:47:28;;;;;;;7.20;2.40;;;;;;;20.57;39.15;99489.66;4963293;28;20034;-79
2023/05/03 06:49:53;;;;;;;5.50;2.08;;;;;;;21.08;38.29;99486.91;4979909;28;20045;-82
2023/05/03 06:52:19;;;;;;;6.50;2.10;;;;;;;21.05;38.19;99476.66;4979718;28;20420;-79
2023/05/03 06:54:44;;;;;;;3.65;1.60;;;;;;;21.38;37.52;99472.13;4963525;28;20037;-79
2023/05/03 06:57:10;;;;;;;4.88;1.75;;;;;;;21.61;37.12;99463.47;4978692;28;20485;-79
2023/05/03 06:59:35;;;;;;;6.68;1.80;;;;;;;21.89;36.57;99461.19;4995648;28;20037;-79
2023/05/03 07:02:01;;;;;;;5.30;1.70;;;;;;;22.21;36.29;99472.69;4962798;28;20080;-80
2023/05/03 07:04:27;;;;;;;3.22;1.40;;;;;;;22.59;35.28;99468.31;4995006;28;20049;-80
2023/05/03 07:06:52;;;;;;;4.47;1.50;;;;;;;23.24;34.00;99476.78;4979241;28;20045;-80
2023/05/03 07:09:17;;;;;;;3.63;1.40;;;;;;;23.80;32.63;99481.72;4995724;28;20038;-79
2023/05/03 07:11:48;;;;;;;3.38;1.30;;;;;;;24.34;31.56;99487.72;5013049;28;20443;-79
2023/05/03 07:14:14;;;;;;;3.60;1.52;;;;;;;24.89;30.65;99502.28;4980823;28;20096;-78
2023/05/03 07:16:39;;;;;;;2.38;1.20;;;;;;;25.28;29.91;99487.59;4980660;28;20034;-78
2023/05/03 07:19:05;;;;;;;2.30;1.30;;;;;;;25.70;28.97;99476.19;4979777;28;20061;-81
2023/05/03 07:21:31;;;;;;;3.28;1.40;;;;;;;25.99;28.31;99483.13;4979221;28;20065;-80
2023/05/03 07:23:57;;;;;;;3.25;1.30;;;;;;;26.57;27.72;99457.75;4979630;28;20038;-82
2023/05/03 07:26:22;;;;;;;2.53;1.10;;;;;;;27.19;26.53;99455.75;5012362;28;20412;-78
2023/05/03 07:28:48;;;;;;;5.63;1.30;;;;;;;27.68;25.78;99457.13;4978995;28;20042;-78
2023/05/03 07:31:13;;;;;;;4.47;1.13;;;;;;;28.17;25.32;99459.44;4963581;28;20193;-80
2023/05/03 07:33:39;;;;;;;4.20;1.17;;;;;;;28.74;23.97;99443.41;4995275;28;20469;-79
2023/05/03 07:36:05;;;;;;;3.13;1.02;;;;;;;28.87;23.80;99445.97;4995866;28;20038;-81
2023/05/03 07:38:32;;;;;;;2.60;1.15;;;;;;;29.32;23.06;99444.97;4995212;28;20469;-79
2023/05/03 07:40:58;;;;;;;2.40;1.20;;;;;;;29.54;22.18;99437.28;4964374;28;20041;-80
2023/05/03 07:43:23;;;;;;;4.28;1.20;;;;;;;29.77;22.09;99439.28;4979080;28;20433;-78
2023/05/03 07:45:51;;;;;;;4.10;1.25;;;;;;;29.84;21.54;99445.47;4979755;28;20045;-81
2023/05/03 07:48:16;;;;;;;6.53;1.27;;;;;;;30.10;21.33;99444.28;4996517;28;20408;-79
2023/05/03 07:50:42;;;;;;;2.28;1.17;;;;;;;30.45;21.18;99445.50;4995304;28;20037;-80
2023/05/03 07:53:10;;;;;;;6.28;1.35;;;;;;;30.85;21.02;99443.00;5014575;28;20141;-83
2023/05/03 07:55:36;;;;;;;4.65;1.25;;;;;;;30.92;20.38;99417.81;4979325;28;20485;-81
2023/05/03 07:58:03;;;;;;;6.45;1.83;;;;;;;31.47;20.00;99428.22;4995386;28;20066;-79
2023/05/03 08:00:28;;;;;;;7.00;1.35;;;;;;;31.54;19.76;99420.03;4981470;28;20030;-79
2023/05/03 08:02:54;;;;;;;4.18;1.25;;;;;;;30.97;20.40;99417.94;4998113;28;20057;-82
2023/05/03 08:05:20;;;;;;;11.02;1.40;;;;;;;31.13;19.99;99427.19;4979622;28;20141;-81
2023/05/03 08:07:45;;;;;;;6.55;1.42;;;;;;;31.59;20.10;99413.91;4998221;28;20030;-81
2023/05/03 08:10:11;;;;;;;6.22;1.58;;;;;;;31.85;19.30;99416.06;4996364;28;20045;-79
2023/05/03 08:12:37;;;;;;;7.55;1.40;;;;;;;31.99;19.13;99430.09;4997301;28;20066;-79
2023/05/03 08:15:05;;;;;;;3.22;1.20;;;;;;;32.21;19.03;99432.13;4966559;28;20218;-80
2023/05/03 08:17:31;;;;;;;5.32;1.40;;;;;;;32.27;18.48;99431.97;4982901;28;20519;-79
2023/05/03 08:19:56;;;;;;;7.63;1.42;;;;;;;32.26;18.44;99435.75;4968286;28;20134;-79
2023/05/03 08:22:24;;;;;;;6.25;1.30;;;;;;;32.60;18.06;99414.16;5000261;28;20037;-81
2023/05/03 08:24:50;;;;;;;5.30;1.60;;;;;;;32.55;18.32;99410.59;4997789;28;20554;-79
2023/05/03 08:27:16;;;;;;;4.43;1.20;;;;;;;32.26;18.47;99391.69;4998003;28;20038;-79
2023/05/03 08:29:41;;;;;;;3.83;1.40;;;;;;;31.97;18.36;99394.41;4998953;28;20040;-79
2023/05/03 08:32:07;;;;;;;7.38;1.20;;;;;;;32.04;18.65;99389.69;4983522;28;20112;-83
2023/05/03 08:34:32;;;;;;;4.78;1.30;;;;;;;31.86;18.61;99381.78;4981996;28;20128;-80
2023/05/03 08:36:58;;;;;;;7.10;1.13;;;;;;;31.59;18.78;99387.75;4982819;28;20122;-81
2023/05/03 08:39:25;;;;;;;3.97;1.20;;;;;;;31.26;18.76;99374.91;4982302;28;20042;-79
2023/05/03 08:41:52;;;;;;;5.35;1.50;;;;;;;30.85;19.14;99375.63;4998730;28;20088;-78
2023/05/03 08:44:22;;;;;;;6.18;1.30;;;;;;;30.85;19.46;99370.22;4982611;28;20129;-80
2023/05/03 08:46:50;;;;;;;2.90;1.25;;;;;;;30.53;19.70;99367.03;4998401;28;20559;-81
2023/05/03 08:49:16;;;;;;;3.97;1.20;;;;;;;30.63;19.35;99366.44;4999051;28;20553;-79
2023/05/03 08:51:42;;;;;;;5.70;1.30;;;;;;;30.52;19.44;99353.78;4998210;28;20038;-80
2023/05/03 08:54:07;;;;;;;3.92;1.25;;;;;;;30.47;19.53;99374.19;4966208;28;20092;-79
2023/05/03 08:56:40;;;;;;;4.57;1.00;;;;;;;30.46;19.88;99372.53;4998147;28;20038;-79
2023/05/03 08:59:08;;;;;;;5.38;1.35;;;;;;;30.37;20.02;99373.88;4981562;28;20077;-80
2023/05/03 09:01:40;;;;;;;4.57;1.30;;;;;;;30.36;19.98;99390.28;4982737;28;20038;-80
2023/05/03 09:04:06;;;;;;;4.82;1.40;;;;;;;30.52;19.68;99389.66;4998032;28;20066;-79
2023/05/03 09:06:32;;;;;;;3.83;1.23;;;;;;;30.45;20.22;99372.75;4997536;28;20030;-79
2023/05/03 09:08:58;;;;;;;4.28;1.15;;;;;;;30.48;20.16;99373.13;4998852;28;20034;-80
2023/05/03 09:11:26;;;;;;;5.63;1.13;;;;;;;30.57;20.02;99362.81;4981389;28;20037;-79
2023/05/03 09:13:52;;;;;;;6.25;1.33;;;;;;;30.48;20.57;99365.03;5030691;28;20041;-79
2023/05/03 09:16:27;;;;;;;4.07;1.10;;;;;;;30.59;20.10;99362.59;4981334;28;20037;-78
2023/05/03 09:19:00;;;;;;;8.02;1.38;;;;;;;30.46;20.29;99361.75;4997826;28;20046;-80
2023/05/03 09:21:27;;;;;;;5.43;1.40;;;;;;;30.54;20.40;99362.47;4965110;28;20582;-80
2023/05/03 09:23:53;;;;;;;6.70;1.45;;;;;;;30.42;20.45;99368.66;4997153;28;20045;-79
2023/05/03 09:26:29;;;;;;;4.35;1.40;;;;;;;30.39;20.69;99357.53;4980757;28;20042;-79
2023/05/03 09:28:55;;;;;;;4.65;1.25;;;;;;;30.31;20.79;99359.50;4997759;28;20060;-79
2023/05/03 09:31:21;;;;;;;4.30;1.50;;;;;;;30.27;21.13;99366.38;4997444;28;20382;-77
2023/05/03 09:33:46;;;;;;;2.63;1.20;;;;;;;30.14;20.86;99366.56;4997653;28;20046;-79
2023/05/03 09:36:12;;;;;;;3.67;1.10;;;;;;;29.80;21.06;99341.19;4997527;28;20042;-78
2023/05/03 09:38:37;;;;;;;5.72;1.42;;;;;;;29.95;21.11;99347.81;4997570;28;20042;-78
2023/05/03 09:41:05;;;;;;;5.40;1.40;;;;;;;29.71;21.10;99352.22;4998108;28;20030;-79
2023/05/03 09:43:31;;;;;;;5.90;1.23;;;;;;;29.53;21.28;99350.41;4998563;28;20045;-81
2023/05/03 09:46:11;;;;;;;3.08;1.23;;;;;;;29.28;21.41;99368.50;4997969;28;20042;-81
2023/05/03 09:48:37;;;;;;;6.00;1.40;;;;;;;29.03;21.72;99351.38;5013576;28;20050;-78
2023/05/03 09:51:04;;;;;;;10.23;1.40;;;;;;;28.81;22.04;99352.81;4995891;28;20038;-78
2023/05/03 09:53:30;;;;;;;3.95;1.27;;;;;;;28.73;22.19;99358.47;4981254;28;20116;-80
2023/05/03 09:55:56;;;;;;;5.35;1.52;;;;;;;28.66;22.53;99364.72;4996943;28;20030;-79
2023/05/03 09:58:22;;;;;;;5.40;1.67;;;;;;;28.46;22.98;99364.03;4996738;28;20093;-79
2023/05/03 10:00:50;;;;;;;5.35;1.40;;;;;;;28.40;23.11;99362.22;4997051;28;20096;-79
2023/05/03 10:03:19;;;;;;;5.78;1.73;;;;;;;28.21;23.48;99361.31;4997475;28;20120;-80
2023/05/03 10:05:46;;;;;;;3.42;1.30;;;;;;;27.99;23.74;99361.69;4997661;28;20452;-80
2023/05/03 10:08:26;;;;;;;4.97;1.20;;;;;;;27.78;23.91;99368.16;4980061;28;20038;-79
2023/05/03 10:10:53;;;;;;;4.85;1.40;;;;;;;27.57;24.13;99371.97;4999475;28;20393;-80
2023/05/03 10:13:20;;;;;;;4.30;1.50;;;;;;;27.31;24.55;99364.81;4980403;28;20041;-78
2023/05/03 10:15:47;;;;;;;6.68;1.48;;;;;;;27.11;24.93;99359.50;4996405;28;20041;-81
2023/05/03 10:18:12;;;;;;;4.32;1.33;;;;;;;26.96;24.84;99343.66;4996774;28;20112;-79
2023/05/03 10:20:49;;;;;;;3.08;1.23;;;;;;;26.98;25.10;99350.47;4980284;28;20177;-80
2023/05/03 10:23:14;;;;;;;5.63;1.20;;;;;;;26.87;25.35;99359.94;4997839;28;20033;-79
2023/05/03 10:26:12;;;;;;;7.95;1.50;;;;;;;26.74;25.56;99356.47;4996772;28;20038;-81
2023/05/03 10:28:37;;;;;;;;;;;;;;;26.76;25.36;99365.94;5013127;28;20044;-80
2023/05/03 10:31:03;;;;;;;6.35;1.30;;;;;;;26.71;25.83;99365.75;5013354;28;19909;-78
2023/05/03 10:33:30;;;;;;;8.85;1.48;;;;;;;26.70;25.87;99375.63;4996063;28;20044;-78
2023/05/03 10:35:56;;;;;;;2.73;1.30;;;;;;;26.61;25.76;99367.97;4995543;28;20038;-86
2023/05/03 10:38:23;;;;;;;8.95;1.50;;;;;;;26.39;25.78;99373.50;4979715;28;20041;-78
2023/05/03 10:40:48;;;;;;;3.97;1.38;;;;;;;26.16;25.74;99379.25;5012331;28;20484;-79
2023/05/03 10:43:29;;;;;;;4.38;1.20;;;;;;;25.87;26.07;99377.69;4995360;28;20169;-77
2023/05/03 10:46:18;;;;;;;5.35;1.40;;;;;;;25.64;26.39;99360.16;5013603;28;20034;-79
2023/05/03 10:48:45;;;;;;;4.82;1.33;;;;;;;25.40;26.79;99359.63;4953203;29;20075;-80
2023/05/03 10:51:29;;;;;;;7.30;1.60;;;;;;;25.34;26.69;99367.63;4920106;29;20427;-79
2023/05/03 10:53:54;;;;;;;7.18;1.45;;;;;;;25.27;27.35;99375.59;4937246;29;20039;-81
2023/05/03 10:56:20;;;;;;;5.00;1.52;;;;;;;25.20;27.19;99370.19;4952779;29;20458;-79
2023/05/03 10:58:48;;;;;;;4.13;1.40;;;;;;;25.19;27.48;99391.75;4936620;29;20058;-80
2023/05/03 11:01:15;;;;;;;9.32;1.73;;;;;;;25.01;27.92;99389.59;4953176;29;20058;-80
2023/05/03 11:03:50;;;;;;;3.63;1.40;;;;;;;24.83;28.06;99396.25;4920804;29;20059;-80
2023/05/03 11:06:35;;;;;;;6.28;1.70;;;;;;;24.63;28.47;99395.25;4953060;29;20039;-79
2023/05/03 11:09:03;;;;;;;4.50;1.50;;;;;;;24.48;28.44;99390.78;4920933;29;20047;-79
2023/05/03 11:11:28;;;;;;;4.53;1.60;;;;;;;24.29;29.38;99394.91;4905788;29;20047;-80
2023/05/03 11:13:54;;;;;;;4.32;1.60;;;;;;;24.23;29.64;99385.00;4921169;29;20582;-80
2023/05/03 11:16:19;;;;;;;7.78;1.60;;;;;;;24.23;29.80;99398.34;4921241;29;20110;-80
2023/05/03 11:18:45;;;;;;;7.63;1.65;;;;;;;24.26;29.72;99386.44;4904606;29;20051;-79
2023/05/03 11:21:11;;;;;;;5.07;1.55;;;;;;;24.35;29.42;99377.31;4936279;29;20129;-79
2023/05/03 11:23:37;;;;;;;12.02;1.83;;;;;;;24.41;29.56;99376.53;4904845;29;20499;-79
2023/05/03 11:26:05;;;;;;;3.45;1.60;;;;;;;24.49;29.54;99359.59;4981253;28;20061;-78
2023/05/03 11:28:30;;;;;;;2.70;1.42;;;;;;;24.65;29.08;99361.19;4979540;28;20420;-78
2023/05/03 11:30:56;;;;;;;4.15;1.40;;;;;;;24.70;28.77;99372.94;4994978;28;20042;-78
2023/05/03 11:33:21;;;;;;;5.45;1.50;;;;;;;24.68;28.82;99376.81;4978003;28;20053;-78